Latest Weather Observations for Dwellingup

IDW60801

Issued at 12:32 pm WST Monday 30 May 2016 (issued every 30 minutes, with the page automatically refreshed every 10 minutes)

About weather observations | Map of weather stations | Latest weather observations for WA | Other Formats
Station Details ID: 009538 Name: DWELLINGUP Lat: -32.71 Lon: 116.06 Height: 267.0 m
Data from the previous 72 hours. | See also: Recent months at Dwellingup
Date/Time
WST
Temp
°C
App
Temp
°C
Dew
Point
Rel
Hum
%
Delta-T
°C
Wind Press
QNH
hPa
Press
MSL
hPa
Rain
since 9 am
mm
Dir
 
Spd
km/h
Gust
km/h
Spd
kts
Gust
kts
30/12:30pm 15.5 13.1 5.1 50 5.0 ENE 7 15 4 8 1018.9 1018.8 0.0
30/12:00pm 14.6 11.8 5.1 53 4.5 NE 9 15 5 8 1019.3 1019.2 0.0
30/11:30am 14.0 11.5 6.4 60 3.7 ENE 9 17 5 9 1019.8 1019.6 0.0
30/11:00am 13.5 11.0 6.4 62 3.4 NE 9 13 5 7 1020.2 1020.0 0.0
30/10:30am 12.6 10.6 7.1 69 2.7 ENE 7 11 4 6 1020.4 1020.2 0.0
30/10:00am 10.6 8.6 8.5 87 1.0 ENE 9 17 5 9 1020.4 1020.2 0.0
30/09:30am 8.3 6.0 7.4 94 0.4 NE 9 20 5 11 1020.4 1020.2 0.0
30/09:00am 5.9 3.1 5.2 95 0.3 E 9 13 5 7 1020.4 1020.2 0.0
30/08:30am 4.8 1.4 4.1 95 0.3 ESE 11 13 6 7 1020.3 1020.1 0.0
30/08:00am 3.0 -0.7 2.3 95 0.3 E 11 13 6 7 1020.3 1020.1 0.0
30/07:30am 2.7 -1.1 1.8 94 0.4 E 11 17 6 9 1020.0 1019.8 0.0
30/07:00am 2.8 -1.0 1.9 94 0.4 ESE 11 13 6 7 1019.9 1019.7 0.0
30/06:30am 3.1 -0.6 2.2 94 0.4 SE 11 13 6 7 1019.5 1019.4 0.0
30/06:00am 3.3 -0.4 2.4 94 0.4 SE 11 13 6 7 1019.3 1019.2 0.0
30/05:30am 3.4 -0.7 2.5 94 0.4 SE 13 13 7 7 1019.1 1019.0 0.0
30/05:00am 3.4 -0.7 2.5 94 0.4 SE 13 15 7 8 1018.9 1018.8 0.0
30/04:30am 3.9 0.3 3.0 94 0.4 ESE 11 13 6 7 1018.8 1018.7 0.0
30/04:00am 4.0 0.4 3.1 94 0.4 ESE 11 13 6 7 1018.8 1018.7 0.0
30/03:30am 4.3 0.8 3.4 94 0.4 SE 11 15 6 8 1018.9 1018.8 0.0
30/03:00am 4.6 1.1 3.7 94 0.4 SE 11 15 6 8 1019.1 1019.0 0.0
30/02:30am 5.0 1.6 4.0 93 0.4 SE 11 13 6 7 1019.2 1019.1 0.0
30/02:00am 5.3 2.0 4.3 93 0.4 SE 11 13 6 7 1019.4 1019.3 0.0
30/01:30am 5.4 2.1 4.4 93 0.4 SE 11 13 6 7 1019.7 1019.5 0.0
30/01:00am 5.3 1.6 4.3 93 0.4 ESE 13 15 7 8 1019.9 1019.7 0.0
30/12:30am 5.5 2.2 4.5 93 0.4 ESE 11 13 6 7 1020.3 1020.1 0.0
30/12:00am 5.9 2.7 4.9 93 0.4 SE 11 15 6 8 1020.3 1020.1 0.0
 
Date/Time
WST
Temp
°C
App
Temp
°C
Dew
Point
Rel
Hum
%
Delta-T
°C
Wind Press
QNH
hPa
Press
MSL
hPa
Rain
since 9 am
mm
Dir
 
Spd
km/h
Gust
km/h
Spd
kts
Gust
kts
29/11:30pm 5.9 2.3 4.9 93 0.4 ESE 13 15 7 8 1020.4 1020.2 0.0
29/11:00pm 6.4 2.8 5.2 92 0.5 E 13 15 7 8 1020.5 1020.3 0.0
29/10:30pm 6.7 3.6 5.5 92 0.5 ESE 11 13 6 7 1020.4 1020.2 0.0
29/10:00pm 7.4 4.4 6.0 91 0.6 E 11 15 6 8 1020.7 1020.6 0.0
29/09:30pm 7.6 4.6 6.2 91 0.6 E 11 13 6 7 1020.7 1020.6 0.0
29/09:00pm 7.8 4.5 6.3 90 0.7 E 13 15 7 8 1020.6 1020.5 0.0
29/08:30pm 8.2 5.3 6.5 89 0.8 E 11 13 6 7 1020.5 1020.3 0.0
29/08:00pm 8.8 6.0 6.9 88 0.9 SE 11 15 6 8 1020.4 1020.2 0.0
29/07:30pm 9.8 7.1 7.4 85 1.2 SE 11 15 6 8 1020.1 1019.9 0.0
29/07:00pm 10.5 7.5 7.7 83 1.4 SE 13 15 7 8 1020.0 1019.8 0.0
29/06:30pm 11.0 8.4 7.9 81 1.5 SE 11 15 6 8 1019.7 1019.5 0.0
29/06:00pm 11.4 8.9 8.1 80 1.6 ESE 11 15 6 8 1019.3 1019.2 0.0
29/05:30pm 11.9 9.3 7.8 76 2.0 ESE 11 15 6 8 1019.0 1018.9 0.0
29/05:00pm 12.5 9.9 7.8 73 2.3 SE 11 20 6 11 1018.9 1018.8 0.0
29/04:30pm 12.9 10.6 7.6 70 2.6 ESE 9 13 5 7 1018.7 1018.6 0.0
29/04:00pm 13.2 10.4 7.0 66 3.0 SE 11 17 6 9 1018.6 1018.5 0.0
29/03:30pm 14.5 12.4 6.8 60 3.8 ESE 7 17 4 9 1018.3 1018.2 0.0
29/03:00pm 14.4 12.4 7.0 61 3.7 E 7 13 4 7 1018.2 1018.1 0.0
29/02:30pm 14.3 11.4 6.6 60 3.8 ESE 11 17 6 9 1018.0 1017.9 0.0
29/02:00pm 14.0 11.8 8.0 67 3.0 ESE 9 15 5 8 1018.0 1017.9 0.0
29/01:30pm 13.9 10.6 7.9 67 3.0 SE 15 24 8 13 1018.2 1018.1 0.0
29/01:00pm 14.1 11.4 7.4 64 3.3 SSE 11 15 6 8 1018.5 1018.4 0.0
29/12:30pm 14.5 13.0 8.5 67 3.1 SSE 6 13 3 7 1018.8 1018.7 0.0
29/12:00pm 14.2 12.0 7.9 66 3.2 SE 9 13 5 7 1019.1 1019.0 0.0
29/11:30am 13.5 12.1 8.8 73 2.4 ESE 6 11 3 6 1019.5 1019.4 0.0
29/11:00am 12.7 10.7 8.6 76 2.1 SE 9 15 5 8 1019.9 1019.7 0.0
29/10:30am 11.7 9.1 9.4 86 1.2 SE 13 19 7 10 1019.9 1019.7 0.0
29/10:00am 10.3 8.4 9.1 92 0.6 SE 9 15 5 8 1020.0 1019.8 0.0
29/09:30am 9.1 6.6 8.2 94 0.4 SE 11 15 6 8 1020.0 1019.8 0.0
29/09:00am 7.7 5.3 7.0 95 0.3 ESE 9 13 5 7 1019.9 1019.7 2.0
29/08:30am 6.2 3.1 5.5 95 0.3 SE 11 13 6 7 1019.8 1019.6 2.0
29/08:00am 5.3 2.4 4.6 95 0.3 ESE 9 11 5 6 1019.4 1019.3 2.0
29/07:30am 5.0 1.6 4.1 94 0.4 E 11 13 6 7 1019.0 1018.9 2.0
29/07:00am 5.4 2.1 4.5 94 0.4 ESE 11 13 6 7 1018.7 1018.6 1.8
29/06:30am 5.5 1.8 4.6 94 0.4 SE 13 15 7 8 1018.6 1018.5 1.8
29/06:00am 5.9 1.9 5.0 94 0.4 SE 15 19 8 10 1018.0 1017.9 1.8
29/05:30am 5.5 1.8 4.6 94 0.4 ESE 13 19 7 10 1017.8 1017.7 1.8
29/05:00am 5.2 1.9 4.3 94 0.4 ESE 11 15 6 8 1017.7 1017.6 1.8
29/04:30am 5.4 2.1 4.5 94 0.4 ESE 11 15 6 8 1017.7 1017.6 1.8
29/04:00am 5.8 2.6 4.9 94 0.4 ESE 11 13 6 7 1017.4 1017.3 1.8
29/03:30am 6.2 3.0 5.3 94 0.4 ESE 11 15 6 8 1017.2 1017.0 1.8
29/03:00am 6.4 3.3 5.5 94 0.4 SE 11 15 6 8 1017.1 1016.9 1.8
29/02:30am 6.6 3.5 5.7 94 0.4 SE 11 13 6 7 1017.1 1016.9 1.8
29/02:00am 7.0 4.4 6.1 94 0.4 SE 9 13 5 7 1017.1 1016.9 1.8
29/01:30am 7.1 4.5 6.0 93 0.5 SE 9 13 5 7 1017.0 1016.8 1.8
29/01:00am 7.8 5.3 6.7 93 0.5 SE 9 13 5 7 1016.7 1016.5 1.8
29/12:30am 8.1 5.3 7.0 93 0.5 S 11 15 6 8 1016.8 1016.6 1.8
29/12:00am 8.8 6.2 7.7 93 0.5 S 11 13 6 7 1016.9 1016.7 1.8
 
Date/Time
WST
Temp
°C
App
Temp
°C
Dew
Point
Rel
Hum
%
Delta-T
°C
Wind Press
QNH
hPa
Press
MSL
hPa
Rain
since 9 am
mm
Dir
 
Spd
km/h
Gust
km/h
Spd
kts
Gust
kts
28/11:30pm 9.5 6.7 8.4 93 0.5 S 13 15 7 8 1016.7 1016.5 1.8
28/11:00pm 9.9 7.2 8.8 93 0.5 S 13 15 7 8 1016.9 1016.7 1.8
28/10:30pm 10.1 7.4 9.0 93 0.6 S 13 17 7 9 1017.0 1016.8 1.8
28/10:00pm 10.8 8.3 9.7 93 0.6 SSW 13 15 7 8 1017.0 1016.8 1.8
28/09:30pm 10.9 8.8 9.8 93 0.6 SSW 11 15 6 8 1016.8 1016.6 1.8
28/09:00pm 11.4 9.4 10.3 93 0.6 SW 11 15 6 8 1016.7 1016.5 1.8
28/08:30pm 11.2 8.8 10.1 93 0.6 SW 13 19 7 10 1016.5 1016.3 1.8
28/08:00pm 11.4 9.4 10.1 92 0.7 SW 11 15 6 8 1016.4 1016.2 1.8
28/07:30pm 11.7 9.8 10.4 92 0.7 SW 11 15 6 8 1016.3 1016.1 1.8
28/07:00pm 11.9 10.8 10.6 92 0.7 WNW 7 11 4 6 1015.9 1015.7 1.6
28/06:30pm 11.9 10.4 10.5 91 0.7 W 9 15 5 8 1015.7 1015.5 1.6
28/06:00pm 11.8 10.2 10.2 90 0.8 WSW 9 13 5 7 1015.2 1015.1 1.6
28/05:30pm 12.6 11.1 10.7 88 1.0 W 9 13 5 7 1015.1 1015.0 1.6
28/05:00pm 12.9 11.5 11.0 88 1.0 W 9 13 5 7 1015.0 1014.9 1.6
28/04:30pm 13.0 11.2 10.9 87 1.1 W 11 17 6 9 1014.8 1014.7 1.6
28/04:00pm 13.2 11.9 11.3 88 1.0 NW 9 17 5 9 1014.5 1014.4 1.2
28/03:30pm 13.9 11.3 10.7 81 1.7 W 15 30 8 16 1014.5 1014.4 1.2
28/03:00pm 14.2 12.7 10.6 79 1.9 W 9 19 5 10 1014.2 1014.1 1.2
28/02:30pm 16.1 14.3 9.3 64 3.6 W 9 17 5 9 1013.8 1013.6 0.6
28/02:00pm 14.8 13.1 9.8 72 2.6 WSW 9 26 5 14 1013.7 1013.5 0.6
28/01:30pm 14.7 10.3 10.3 75 2.3 WSW 24 48 13 26 1013.8 1013.6 0.6
28/01:00pm 15.4 12.6 11.2 76 2.3 WSW 17 30 9 16 1013.4 1013.2 0.6
28/12:30pm 15.8 12.0 9.9 68 3.1 WSW 20 43 11 23 1013.6 1013.4 0.2
28/12:00pm 15.8 13.8 8.8 63 3.6 W 9 26 5 14 1014.0 1013.8 0.2
28/11:30am 15.3 12.8 9.7 69 2.9 WSW 13 30 7 16 1014.3 1014.2 0.2
28/11:00am 15.2 12.3 9.6 69 2.9 W 15 28 8 15 1014.5 1014.4 0.2
28/10:30am 15.3 12.4 10.9 75 2.4 WSW 17 28 9 15 1014.5 1014.4 0.2
28/10:00am 14.6 11.6 10.8 78 2.0 WSW 17 32 9 17 1014.6 1014.5 0.2
28/09:30am 14.5 13.0 11.8 84 1.5 W 11 20 6 11 1014.4 1014.3 0.2
28/09:00am 13.4 11.9 11.8 90 0.9 W 11 20 6 11 1014.4 1014.3 12.2
28/08:30am 12.7 10.7 11.4 92 0.7 WNW 13 24 7 13 1014.2 1014.1 12.2
28/08:00am 12.0 10.5 10.7 92 0.7 WNW 9 13 5 7 1014.1 1013.9 12.2
28/07:30am 12.3 10.2 11.0 92 0.7 WSW 13 24 7 13 1013.9 1013.7 12.2
28/07:00am 12.0 9.8 10.9 93 0.6 WNW 13 28 7 15 1013.4 1013.2 12.2
28/06:30am 12.7 10.7 11.6 93 0.6 W 13 22 7 12 1013.2 1013.0 12.2
28/06:00am 13.0 11.5 11.9 93 0.6 W 11 17 6 9 1013.1 1012.9 12.2
28/05:30am 13.0 11.2 12.1 94 0.5 W 13 20 7 11 1012.9 1012.7 11.8
28/05:00am 13.2 11.5 12.3 94 0.5 WNW 13 24 7 13 1012.7 1012.5 11.8
28/04:30am 13.2 11.1 12.3 94 0.5 WNW 15 28 8 15 1012.7 1012.5 11.8
28/04:00am 13.0 10.7 11.9 93 0.6 WNW 15 28 8 15 1012.5 1012.3 11.4
28/03:30am 12.8 9.1 11.5 92 0.7 WNW 22 37 12 20 1012.6 1012.4 8.8
28/03:00am 13.0 10.2 11.4 90 0.9 NW 17 32 9 17 1013.0 1012.8 5.4
28/02:30am 13.6 9.9 11.5 87 1.1 NNW 22 39 12 21 1012.5 1012.3 2.2
28/02:11am 14.2 9.3 11.2 82 1.6 NNW 28 46 15 25 1012.6 1012.4 0.8
28/02:00am 14.6 10.4 11.0 79 1.9 NNW 24 41 13 22 1012.3 1012.1 0.4
28/01:32am 14.4 9.4 10.8 79 1.9 NNW 28 48 15 26 1012.7 1012.5 0.2
28/01:30am 14.3 9.6 10.7 79 1.9 NNW 26 48 14 26 1012.6 1012.4 0.2
28/01:00am 11.3 6.9 8.9 85 1.2 N 22 41 12 22 1013.0 1012.8 0.2
28/12:30am 11.3 7.8 8.9 85 1.2 N 17 22 9 12 1013.6 1013.4 0.2
28/12:00am 11.7 8.2 8.9 83 1.4 N 17 24 9 13 1014.2 1014.1 0.2
 
Date/Time
WST
Temp
°C
App
Temp
°C
Dew
Point
Rel
Hum
%
Delta-T
°C
Wind Press
QNH
hPa
Press
MSL
hPa
Rain
since 9 am
mm
Dir
 
Spd
km/h
Gust
km/h
Spd
kts
Gust
kts
27/11:30pm 12.2 8.4 9.2 82 1.5 N 19 26 10 14 1014.7 1014.6 0.2
27/11:00pm 12.5 8.8 9.3 81 1.6 N 19 26 10 14 1015.3 1015.2 0.2
27/10:30pm 12.9 9.5 9.2 78 1.9 N 17 30 9 16 1016.0 1015.8 0.2
27/10:00pm 13.0 8.6 9.1 77 2.0 N 22 35 12 19 1016.6 1016.4 0.2
27/09:30pm 13.8 9.6 7.6 66 3.1 N 19 32 10 17 1016.8 1016.6 0.2
27/09:00pm 13.0 9.2 7.7 70 2.6 N 17 22 9 12 1016.9 1016.7 0.2
27/08:30pm 12.9 9.5 7.6 70 2.6 N 15 20 8 11 1017.1 1016.9 0.2
27/08:00pm 14.2 10.3 7.0 62 3.6 N 17 30 9 16 1017.7 1017.6 0.2
27/07:30pm 13.2 10.1 8.7 74 2.3 N 15 17 8 9 1018.0 1017.9 0.2
27/07:00pm 13.7 11.3 8.5 71 2.6 N 11 17 6 9 1018.0 1017.9 0.2
27/06:30pm 13.9 11.0 8.3 69 2.8 N 13 17 7 9 1018.2 1018.1 0.2
27/06:00pm 13.9 11.4 8.3 69 2.8 N 11 15 6 8 1017.8 1017.7 0.2
27/05:30pm 14.1 11.3 8.5 69 2.9 N 13 17 7 9 1017.7 1017.6 0.2
27/05:00pm 14.5 11.7 8.5 67 3.1 NNE 13 17 7 9 1017.7 1017.6 0.2
27/04:30pm 16.0 13.4 7.7 58 4.2 N 11 17 6 9 1017.8 1017.7 0.2
27/04:00pm 16.8 13.7 7.4 54 4.8 NNE 13 20 7 11 1017.9 1017.8 0.2
27/03:30pm 17.1 14.0 7.2 52 5.0 NNE 13 28 7 15 1017.9 1017.8 0.2
27/03:00pm 17.0 14.4 7.6 54 4.8 N 11 20 6 11 1018.3 1018.2 0.2
27/02:30pm 17.0 14.7 7.4 53 4.9 NNE 9 17 5 9 1018.8 1018.7 0.2
27/02:00pm 16.6 13.9 7.3 54 4.7 NNE 11 17 6 9 1019.4 1019.3 0.2
27/01:30pm 16.4 13.7 7.3 55 4.6 NNE 11 17 6 9 1020.0 1019.8 0.2
27/01:00pm 16.1 14.1 7.3 56 4.4 N 7 15 4 8 1020.5 1020.3 0.2

Other Formats:

Comma delimited format used in spreadsheet applications
http://www.bom.gov.au/fwo/IDW60801/IDW60801.94620.axf

JavaScript Object Notation format (JSON) in row-major order
http://www.bom.gov.au/fwo/IDW60801/IDW60801.94620.json